sensor_id;sensor_type;location;lat;lon;timestamp;P1;durP1;ratioP1;P2;durP2;ratioP2
36745;SDS011;22715;52.182;21.206;2023-03-25T00:01:52;9.68;;;7.80;;
36745;SDS011;22715;52.182;21.206;2023-03-25T00:06:53;14.38;;;7.88;;
36745;SDS011;22715;52.182;21.206;2023-03-25T00:09:19;11.75;;;8.07;;
36745;SDS011;22715;52.182;21.206;2023-03-25T00:11:48;8.77;;;7.07;;
36745;SDS011;22715;52.182;21.206;2023-03-25T00:14:15;11.55;;;7.22;;
36745;SDS011;22715;52.182;21.206;2023-03-25T00:16:41;11.93;;;6.53;;
36745;SDS011;22715;52.182;21.206;2023-03-25T00:19:07;10.73;;;6.35;;
36745;SDS011;22715;52.182;21.206;2023-03-25T00:21:33;9.27;;;7.10;;
36745;SDS011;22715;52.182;21.206;2023-03-25T00:23:59;10.32;;;7.03;;
36745;SDS011;22715;52.182;21.206;2023-03-25T00:26:24;8.43;;;6.47;;
36745;SDS011;22715;52.182;21.206;2023-03-25T00:29:02;8.93;;;6.22;;
36745;SDS011;22715;52.182;21.206;2023-03-25T00:31:27;14.80;;;6.68;;
36745;SDS011;22715;52.182;21.206;2023-03-25T00:33:54;9.02;;;7.00;;
36745;SDS011;22715;52.182;21.206;2023-03-25T00:36:22;9.77;;;6.45;;
36745;SDS011;22715;52.182;21.206;2023-03-25T00:38:47;8.48;;;6.57;;
36745;SDS011;22715;52.182;21.206;2023-03-25T00:43:38;7.53;;;6.57;;
36745;SDS011;22715;52.182;21.206;2023-03-25T00:46:03;8.90;;;6.18;;
36745;SDS011;22715;52.182;21.206;2023-03-25T00:48:29;7.15;;;5.07;;
36745;SDS011;22715;52.182;21.206;2023-03-25T00:50:54;8.93;;;5.63;;
36745;SDS011;22715;52.182;21.206;2023-03-25T00:53:20;8.20;;;6.18;;
36745;SDS011;22715;52.182;21.206;2023-03-25T00:55:46;10.27;;;5.30;;
36745;SDS011;22715;52.182;21.206;2023-03-25T00:58:11;6.50;;;5.47;;
36745;SDS011;22715;52.182;21.206;2023-03-25T01:00:37;8.52;;;5.10;;
36745;SDS011;22715;52.182;21.206;2023-03-25T01:03:02;7.80;;;6.15;;
36745;SDS011;22715;52.182;21.206;2023-03-25T01:05:28;9.32;;;5.00;;
36745;SDS011;22715;52.182;21.206;2023-03-25T01:07:53;6.20;;;4.72;;
36745;SDS011;22715;52.182;21.206;2023-03-25T01:10:19;7.03;;;5.38;;
36745;SDS011;22715;52.182;21.206;2023-03-25T01:12:45;6.45;;;5.18;;
36745;SDS011;22715;52.182;21.206;2023-03-25T01:15:10;9.18;;;5.93;;
36745;SDS011;22715;52.182;21.206;2023-03-25T01:17:36;9.77;;;6.35;;
36745;SDS011;22715;52.182;21.206;2023-03-25T01:22:35;8.38;;;5.63;;
36745;SDS011;22715;52.182;21.206;2023-03-25T01:25:00;11.82;;;6.00;;
36745;SDS011;22715;52.182;21.206;2023-03-25T01:27:26;13.50;;;6.13;;
36745;SDS011;22715;52.182;21.206;2023-03-25T01:29:51;9.00;;;5.80;;
36745;SDS011;22715;52.182;21.206;2023-03-25T01:32:18;7.15;;;6.22;;
36745;SDS011;22715;52.182;21.206;2023-03-25T01:34:50;10.63;;;5.72;;
36745;SDS011;22715;52.182;21.206;2023-03-25T01:37:15;7.70;;;5.68;;
36745;SDS011;22715;52.182;21.206;2023-03-25T01:39:57;8.32;;;5.10;;
36745;SDS011;22715;52.182;21.206;2023-03-25T01:47:37;10.00;;;6.53;;
36745;SDS011;22715;52.182;21.206;2023-03-25T01:50:03;7.38;;;5.72;;
36745;SDS011;22715;52.182;21.206;2023-03-25T01:52:28;9.60;;;5.88;;
36745;SDS011;22715;52.182;21.206;2023-03-25T01:54:54;8.63;;;6.82;;
36745;SDS011;22715;52.182;21.206;2023-03-25T01:57:25;8.38;;;6.45;;
36745;SDS011;22715;52.182;21.206;2023-03-25T01:59:51;10.57;;;6.17;;
36745;SDS011;22715;52.182;21.206;2023-03-25T02:02:17;10.23;;;6.95;;
36745;SDS011;22715;52.182;21.206;2023-03-25T02:04:48;9.82;;;7.22;;
36745;SDS011;22715;52.182;21.206;2023-03-25T02:07:22;9.52;;;7.05;;
36745;SDS011;22715;52.182;21.206;2023-03-25T02:09:48;8.07;;;6.63;;
36745;SDS011;22715;52.182;21.206;2023-03-25T02:12:13;8.90;;;6.22;;
36745;SDS011;22715;52.182;21.206;2023-03-25T02:14:39;9.00;;;6.10;;
36745;SDS011;22715;52.182;21.206;2023-03-25T02:17:21;9.52;;;6.93;;
36745;SDS011;22715;52.182;21.206;2023-03-25T02:51:11;12.35;;;8.07;;
36745;SDS011;22715;52.182;21.206;2023-03-25T02:53:38;11.30;;;8.90;;
36745;SDS011;22715;52.182;21.206;2023-03-25T02:56:09;12.13;;;9.13;;
36745;SDS011;22715;52.182;21.206;2023-03-25T02:58:35;11.15;;;8.02;;
36745;SDS011;22715;52.182;21.206;2023-03-25T03:01:02;11.00;;;8.93;;
36745;SDS011;22715;52.182;21.206;2023-03-25T03:03:28;11.98;;;8.52;;
36745;SDS011;22715;52.182;21.206;2023-03-25T03:05:58;9.00;;;8.10;;
36745;SDS011;22715;52.182;21.206;2023-03-25T03:13:38;11.15;;;8.80;;
36745;SDS011;22715;52.182;21.206;2023-03-25T03:16:12;13.70;;;7.53;;
36745;SDS011;22715;52.182;21.206;2023-03-25T03:18:43;13.23;;;8.77;;
36745;SDS011;22715;52.182;21.206;2023-03-25T03:23:50;12.13;;;8.93;;
36745;SDS011;22715;52.182;21.206;2023-03-25T03:26:27;11.73;;;8.25;;
36745;SDS011;22715;52.182;21.206;2023-03-25T03:29:16;14.00;;;10.23;;
36745;SDS011;22715;52.182;21.206;2023-03-25T03:37:00;14.70;;;8.80;;
36745;SDS011;22715;52.182;21.206;2023-03-25T03:39:29;11.10;;;7.60;;
36745;SDS011;22715;52.182;21.206;2023-03-25T03:42:02;14.75;;;8.68;;
36745;SDS011;22715;52.182;21.206;2023-03-25T03:44:29;11.35;;;7.18;;
36745;SDS011;22715;52.182;21.206;2023-03-25T03:49:35;11.50;;;8.98;;
36745;SDS011;22715;52.182;21.206;2023-03-25T03:52:09;11.43;;;8.40;;
36745;SDS011;22715;52.182;21.206;2023-03-25T03:57:29;12.98;;;8.10;;
36745;SDS011;22715;52.182;21.206;2023-03-25T04:02:52;13.95;;;8.52;;
36745;SDS011;22715;52.182;21.206;2023-03-25T04:05:21;12.95;;;7.88;;
36745;SDS011;22715;52.182;21.206;2023-03-25T04:13:03;8.18;;;7.30;;
36745;SDS011;22715;52.182;21.206;2023-03-25T04:15:30;12.73;;;8.68;;
36745;SDS011;22715;52.182;21.206;2023-03-25T04:17:56;12.25;;;7.80;;
36745;SDS011;22715;52.182;21.206;2023-03-25T04:20:22;12.43;;;8.27;;
36745;SDS011;22715;52.182;21.206;2023-03-25T04:22:49;14.00;;;8.82;;
36745;SDS011;22715;52.182;21.206;2023-03-25T04:25:18;15.23;;;8.63;;
36745;SDS011;22715;52.182;21.206;2023-03-25T04:27:49;13.07;;;7.57;;
36745;SDS011;22715;52.182;21.206;2023-03-25T04:30:18;14.48;;;9.43;;
36745;SDS011;22715;52.182;21.206;2023-03-25T04:32:43;13.70;;;8.15;;
36745;SDS011;22715;52.182;21.206;2023-03-25T04:35:13;9.35;;;7.70;;
36745;SDS011;22715;52.182;21.206;2023-03-25T04:37:38;12.00;;;8.65;;
36745;SDS011;22715;52.182;21.206;2023-03-25T04:40:06;9.45;;;7.07;;
36745;SDS011;22715;52.182;21.206;2023-03-25T04:42:32;10.88;;;7.53;;
36745;SDS011;22715;52.182;21.206;2023-03-25T04:45:13;15.70;;;8.32;;
36745;SDS011;22715;52.182;21.206;2023-03-25T04:47:41;11.90;;;9.02;;
36745;SDS011;22715;52.182;21.206;2023-03-25T04:55:32;11.55;;;7.22;;
36745;SDS011;22715;52.182;21.206;2023-03-25T04:57:58;11.40;;;7.57;;
36745;SDS011;22715;52.182;21.206;2023-03-25T05:00:24;11.93;;;7.72;;
36745;SDS011;22715;52.182;21.206;2023-03-25T05:02:50;14.60;;;8.45;;
36745;SDS011;22715;52.182;21.206;2023-03-25T05:05:28;10.85;;;8.00;;
36745;SDS011;22715;52.182;21.206;2023-03-25T05:10:32;10.68;;;7.43;;
36745;SDS011;22715;52.182;21.206;2023-03-25T05:13:02;9.07;;;6.88;;
36745;SDS011;22715;52.182;21.206;2023-03-25T05:18:15;11.43;;;7.53;;
36745;SDS011;22715;52.182;21.206;2023-03-25T05:20:42;13.90;;;9.95;;
36745;SDS011;22715;52.182;21.206;2023-03-25T05:23:08;15.32;;;9.05;;
36745;SDS011;22715;52.182;21.206;2023-03-25T05:25:39;13.90;;;9.13;;
36745;SDS011;22715;52.182;21.206;2023-03-25T05:28:05;12.82;;;8.60;;
36745;SDS011;22715;52.182;21.206;2023-03-25T05:30:34;15.23;;;10.23;;
36745;SDS011;22715;52.182;21.206;2023-03-25T05:33:03;13.27;;;9.05;;
36745;SDS011;22715;52.182;21.206;2023-03-25T05:35:28;11.77;;;8.52;;
36745;SDS011;22715;52.182;21.206;2023-03-25T05:37:54;14.30;;;8.05;;
36745;SDS011;22715;52.182;21.206;2023-03-25T05:40:20;13.40;;;8.48;;
36745;SDS011;22715;52.182;21.206;2023-03-25T05:42:46;10.80;;;8.68;;
36745;SDS011;22715;52.182;21.206;2023-03-25T05:45:15;14.15;;;9.13;;
36745;SDS011;22715;52.182;21.206;2023-03-25T05:47:42;16.00;;;9.07;;
36745;SDS011;22715;52.182;21.206;2023-03-25T05:50:16;14.55;;;9.57;;
36745;SDS011;22715;52.182;21.206;2023-03-25T05:52:42;13.10;;;10.30;;
36745;SDS011;22715;52.182;21.206;2023-03-25T05:57:51;15.32;;;9.75;;
36745;SDS011;22715;52.182;21.206;2023-03-25T06:00:23;14.23;;;8.77;;
36745;SDS011;22715;52.182;21.206;2023-03-25T06:02:52;13.95;;;9.85;;
36745;SDS011;22715;52.182;21.206;2023-03-25T06:05:18;15.55;;;9.75;;
36745;SDS011;22715;52.182;21.206;2023-03-25T06:07:57;12.40;;;8.95;;
36745;SDS011;22715;52.182;21.206;2023-03-25T06:10:22;14.70;;;8.95;;
36745;SDS011;22715;52.182;21.206;2023-03-25T06:12:48;12.27;;;8.32;;
36745;SDS011;22715;52.182;21.206;2023-03-25T06:15:17;12.10;;;9.18;;
36745;SDS011;22715;52.182;21.206;2023-03-25T06:17:42;15.55;;;10.32;;
36745;SDS011;22715;52.182;21.206;2023-03-25T06:20:15;13.00;;;9.45;;
36745;SDS011;22715;52.182;21.206;2023-03-25T06:22:47;14.27;;;9.75;;
36745;SDS011;22715;52.182;21.206;2023-03-25T06:25:14;12.43;;;8.38;;
36745;SDS011;22715;52.182;21.206;2023-03-25T06:27:49;13.95;;;8.52;;
36745;SDS011;22715;52.182;21.206;2023-03-25T06:30:16;14.20;;;9.30;;
36745;SDS011;22715;52.182;21.206;2023-03-25T06:32:41;15.90;;;10.68;;
36745;SDS011;22715;52.182;21.206;2023-03-25T06:35:08;13.82;;;9.30;;
36745;SDS011;22715;52.182;21.206;2023-03-25T06:37:33;14.30;;;9.48;;
36745;SDS011;22715;52.182;21.206;2023-03-25T06:39:59;16.52;;;10.10;;
36745;SDS011;22715;52.182;21.206;2023-03-25T06:42:25;15.15;;;10.77;;
36745;SDS011;22715;52.182;21.206;2023-03-25T06:44:51;14.80;;;9.32;;
36745;SDS011;22715;52.182;21.206;2023-03-25T06:47:19;14.23;;;10.20;;
36745;SDS011;22715;52.182;21.206;2023-03-25T06:49:53;12.73;;;8.95;;
36745;SDS011;22715;52.182;21.206;2023-03-25T06:52:21;13.07;;;9.57;;
36745;SDS011;22715;52.182;21.206;2023-03-25T06:54:47;16.48;;;11.18;;
36745;SDS011;22715;52.182;21.206;2023-03-25T06:57:13;11.50;;;9.05;;
36745;SDS011;22715;52.182;21.206;2023-03-25T06:59:41;14.30;;;8.95;;
36745;SDS011;22715;52.182;21.206;2023-03-25T07:02:06;12.88;;;9.27;;
36745;SDS011;22715;52.182;21.206;2023-03-25T07:04:32;13.13;;;8.90;;
36745;SDS011;22715;52.182;21.206;2023-03-25T07:06:57;13.88;;;10.07;;
36745;SDS011;22715;52.182;21.206;2023-03-25T07:09:22;10.23;;;7.55;;
36745;SDS011;22715;52.182;21.206;2023-03-25T07:11:48;17.50;;;8.95;;
36745;SDS011;22715;52.182;21.206;2023-03-25T07:14:13;11.35;;;8.65;;
36745;SDS011;22715;52.182;21.206;2023-03-25T07:19:09;13.75;;;8.70;;
36745;SDS011;22715;52.182;21.206;2023-03-25T07:26:47;11.88;;;8.30;;
36745;SDS011;22715;52.182;21.206;2023-03-25T07:29:13;12.77;;;8.63;;
36745;SDS011;22715;52.182;21.206;2023-03-25T07:31:42;10.13;;;8.10;;
36745;SDS011;22715;52.182;21.206;2023-03-25T07:34:09;11.77;;;8.30;;
36745;SDS011;22715;52.182;21.206;2023-03-25T07:36:34;14.95;;;8.85;;
36745;SDS011;22715;52.182;21.206;2023-03-25T07:39:00;12.23;;;7.93;;
36745;SDS011;22715;52.182;21.206;2023-03-25T07:41:26;14.40;;;8.68;;
36745;SDS011;22715;52.182;21.206;2023-03-25T07:43:51;13.93;;;8.15;;
36745;SDS011;22715;52.182;21.206;2023-03-25T07:46:17;13.73;;;8.50;;
36745;SDS011;22715;52.182;21.206;2023-03-25T07:48:49;13.80;;;8.05;;
36745;SDS011;22715;52.182;21.206;2023-03-25T07:51:14;12.93;;;8.77;;
36745;SDS011;22715;52.182;21.206;2023-03-25T07:53:40;10.02;;;7.57;;
36745;SDS011;22715;52.182;21.206;2023-03-25T07:56:08;13.95;;;8.52;;
36745;SDS011;22715;52.182;21.206;2023-03-25T07:58:34;13.27;;;7.78;;
36745;SDS011;22715;52.182;21.206;2023-03-25T08:00:59;14.15;;;8.82;;
36745;SDS011;22715;52.182;21.206;2023-03-25T08:03:25;11.02;;;8.68;;
36745;SDS011;22715;52.182;21.206;2023-03-25T08:05:51;11.95;;;8.82;;
36745;SDS011;22715;52.182;21.206;2023-03-25T08:08:21;11.20;;;8.30;;
36745;SDS011;22715;52.182;21.206;2023-03-25T08:10:47;14.77;;;9.43;;
36745;SDS011;22715;52.182;21.206;2023-03-25T08:16:22;11.18;;;7.68;;
36745;SDS011;22715;52.182;21.206;2023-03-25T08:21:18;11.55;;;8.70;;
36745;SDS011;22715;52.182;21.206;2023-03-25T08:23:51;12.40;;;8.30;;
36745;SDS011;22715;52.182;21.206;2023-03-25T08:26:22;12.00;;;9.43;;
36745;SDS011;22715;52.182;21.206;2023-03-25T08:28:47;13.98;;;8.35;;
36745;SDS011;22715;52.182;21.206;2023-03-25T08:31:12;13.32;;;8.95;;
36745;SDS011;22715;52.182;21.206;2023-03-25T08:33:39;10.13;;;7.82;;
36745;SDS011;22715;52.182;21.206;2023-03-25T08:36:06;11.80;;;8.20;;
36745;SDS011;22715;52.182;21.206;2023-03-25T08:38:31;11.15;;;8.35;;
36745;SDS011;22715;52.182;21.206;2023-03-25T08:40:57;14.85;;;8.93;;
36745;SDS011;22715;52.182;21.206;2023-03-25T08:43:22;10.05;;;7.57;;
36745;SDS011;22715;52.182;21.206;2023-03-25T08:45:51;7.93;;;6.13;;
36745;SDS011;22715;52.182;21.206;2023-03-25T08:48:17;8.70;;;6.45;;
36745;SDS011;22715;52.182;21.206;2023-03-25T08:50:42;9.43;;;6.97;;
36745;SDS011;22715;52.182;21.206;2023-03-25T08:53:08;8.75;;;6.57;;
36745;SDS011;22715;52.182;21.206;2023-03-25T08:55:33;11.23;;;7.50;;
36745;SDS011;22715;52.182;21.206;2023-03-25T08:58:05;7.75;;;5.68;;
36745;SDS011;22715;52.182;21.206;2023-03-25T09:00:32;6.53;;;5.70;;
36745;SDS011;22715;52.182;21.206;2023-03-25T09:02:57;5.95;;;5.18;;
36745;SDS011;22715;52.182;21.206;2023-03-25T09:05:24;8.68;;;5.45;;
36745;SDS011;22715;52.182;21.206;2023-03-25T09:07:50;9.35;;;5.65;;
36745;SDS011;22715;52.182;21.206;2023-03-25T09:10:19;8.70;;;6.43;;
36745;SDS011;22715;52.182;21.206;2023-03-25T09:12:44;7.40;;;5.88;;
36745;SDS011;22715;52.182;21.206;2023-03-25T09:15:10;7.00;;;5.25;;
36745;SDS011;22715;52.182;21.206;2023-03-25T09:17:36;12.60;;;7.50;;
36745;SDS011;22715;52.182;21.206;2023-03-25T09:20:01;8.75;;;5.57;;
36745;SDS011;22715;52.182;21.206;2023-03-25T09:22:26;7.13;;;5.53;;
36745;SDS011;22715;52.182;21.206;2023-03-25T09:24:52;7.65;;;4.53;;
36745;SDS011;22715;52.182;21.206;2023-03-25T09:27:17;8.57;;;5.05;;
36745;SDS011;22715;52.182;21.206;2023-03-25T09:32:10;6.93;;;4.47;;
36745;SDS011;22715;52.182;21.206;2023-03-25T09:34:36;13.50;;;5.20;;
36745;SDS011;22715;52.182;21.206;2023-03-25T09:37:02;6.10;;;3.70;;
36745;SDS011;22715;52.182;21.206;2023-03-25T09:39:28;9.95;;;4.22;;
36745;SDS011;22715;52.182;21.206;2023-03-25T09:42:00;5.40;;;3.80;;
36745;SDS011;22715;52.182;21.206;2023-03-25T09:44:51;6.88;;;4.90;;
36745;SDS011;22715;52.182;21.206;2023-03-25T09:47:19;11.63;;;4.68;;
36745;SDS011;22715;52.182;21.206;2023-03-25T09:49:45;5.28;;;3.35;;
36745;SDS011;22715;52.182;21.206;2023-03-25T09:52:14;7.05;;;4.07;;
36745;SDS011;22715;52.182;21.206;2023-03-25T09:54:42;5.43;;;4.13;;
36745;SDS011;22715;52.182;21.206;2023-03-25T09:57:10;7.45;;;3.25;;
36745;SDS011;22715;52.182;21.206;2023-03-25T10:02:05;4.57;;;3.90;;
36745;SDS011;22715;52.182;21.206;2023-03-25T10:04:42;6.60;;;3.65;;
36745;SDS011;22715;52.182;21.206;2023-03-25T10:09:45;4.68;;;3.47;;
36745;SDS011;22715;52.182;21.206;2023-03-25T10:17:41;5.28;;;3.08;;
36745;SDS011;22715;52.182;21.206;2023-03-25T10:20:17;5.22;;;2.95;;
36745;SDS011;22715;52.182;21.206;2023-03-25T10:25:35;5.13;;;2.88;;
36745;SDS011;22715;52.182;21.206;2023-03-25T10:28:02;6.97;;;3.00;;
36745;SDS011;22715;52.182;21.206;2023-03-25T10:30:31;5.95;;;3.33;;
36745;SDS011;22715;52.182;21.206;2023-03-25T10:32:59;5.17;;;3.30;;
36745;SDS011;22715;52.182;21.206;2023-03-25T10:35:27;11.68;;;3.72;;
36745;SDS011;22715;52.182;21.206;2023-03-25T10:37:56;6.32;;;3.72;;
36745;SDS011;22715;52.182;21.206;2023-03-25T10:40:29;5.20;;;3.50;;
36745;SDS011;22715;52.182;21.206;2023-03-25T10:48:48;3.67;;;2.47;;
36745;SDS011;22715;52.182;21.206;2023-03-25T10:51:15;5.63;;;3.30;;
36745;SDS011;22715;52.182;21.206;2023-03-25T10:59:19;4.50;;;3.53;;
36745;SDS011;22715;52.182;21.206;2023-03-25T11:01:47;6.15;;;2.65;;
36745;SDS011;22715;52.182;21.206;2023-03-25T11:04:14;4.55;;;2.63;;
36745;SDS011;22715;52.182;21.206;2023-03-25T11:06:43;6.07;;;4.70;;
36745;SDS011;22715;52.182;21.206;2023-03-25T11:11:39;5.47;;;2.72;;
36745;SDS011;22715;52.182;21.206;2023-03-25T11:14:05;6.85;;;3.20;;
36745;SDS011;22715;52.182;21.206;2023-03-25T11:19:23;3.00;;;2.58;;
36745;SDS011;22715;52.182;21.206;2023-03-25T11:21:52;4.28;;;3.20;;
36745;SDS011;22715;52.182;21.206;2023-03-25T11:24:19;4.32;;;2.53;;
36745;SDS011;22715;52.182;21.206;2023-03-25T11:26:47;5.05;;;3.90;;
36745;SDS011;22715;52.182;21.206;2023-03-25T11:29:14;7.25;;;2.53;;
36745;SDS011;22715;52.182;21.206;2023-03-25T11:31:41;4.30;;;2.83;;
36745;SDS011;22715;52.182;21.206;2023-03-25T11:36:38;5.88;;;3.88;;
36745;SDS011;22715;52.182;21.206;2023-03-25T11:39:16;4.28;;;3.05;;
36745;SDS011;22715;52.182;21.206;2023-03-25T11:41:42;4.07;;;2.50;;
36745;SDS011;22715;52.182;21.206;2023-03-25T11:44:16;4.40;;;2.40;;
36745;SDS011;22715;52.182;21.206;2023-03-25T11:46:44;5.05;;;2.83;;
36745;SDS011;22715;52.182;21.206;2023-03-25T11:49:11;2.65;;;2.40;;
36745;SDS011;22715;52.182;21.206;2023-03-25T11:51:40;7.40;;;2.03;;
36745;SDS011;22715;52.182;21.206;2023-03-25T11:54:06;3.65;;;1.98;;
36745;SDS011;22715;52.182;21.206;2023-03-25T11:56:36;4.32;;;1.70;;
36745;SDS011;22715;52.182;21.206;2023-03-25T11:59:06;2.63;;;2.42;;
36745;SDS011;22715;52.182;21.206;2023-03-25T12:01:43;3.17;;;2.33;;
36745;SDS011;22715;52.182;21.206;2023-03-25T12:04:19;2.72;;;2.05;;
36745;SDS011;22715;52.182;21.206;2023-03-25T12:09:58;4.68;;;2.30;;
36745;SDS011;22715;52.182;21.206;2023-03-25T12:14:57;3.67;;;2.10;;
36745;SDS011;22715;52.182;21.206;2023-03-25T12:20:01;3.80;;;2.70;;
36745;SDS011;22715;52.182;21.206;2023-03-25T12:28:03;2.92;;;1.85;;
36745;SDS011;22715;52.182;21.206;2023-03-25T12:41:09;2.33;;;1.75;;
36745;SDS011;22715;52.182;21.206;2023-03-25T12:46:07;2.90;;;1.92;;
36745;SDS011;22715;52.182;21.206;2023-03-25T12:51:26;6.65;;;2.10;;
36745;SDS011;22715;52.182;21.206;2023-03-25T13:07:33;2.20;;;2.00;;
36745;SDS011;22715;52.182;21.206;2023-03-25T13:10:33;3.55;;;2.75;;
36745;SDS011;22715;52.182;21.206;2023-03-25T13:15:26;1.70;;;1.40;;
36745;SDS011;22715;52.182;21.206;2023-03-25T13:20:19;3.30;;;1.52;;
36745;SDS011;22715;52.182;21.206;2023-03-25T13:22:47;3.63;;;1.67;;
36745;SDS011;22715;52.182;21.206;2023-03-25T13:25:18;1.90;;;1.70;;
36745;SDS011;22715;52.182;21.206;2023-03-25T13:27:44;2.15;;;1.50;;
36745;SDS011;22715;52.182;21.206;2023-03-25T13:30:22;2.42;;;1.65;;
36745;SDS011;22715;52.182;21.206;2023-03-25T13:32:52;4.13;;;1.52;;
36745;SDS011;22715;52.182;21.206;2023-03-25T13:35:26;2.60;;;1.70;;
36745;SDS011;22715;52.182;21.206;2023-03-25T13:37:55;7.97;;;3.15;;
36745;SDS011;22715;52.182;21.206;2023-03-25T13:40:23;6.35;;;2.22;;
36745;SDS011;22715;52.182;21.206;2023-03-25T13:43:11;7.03;;;3.67;;
36745;SDS011;22715;52.182;21.206;2023-03-25T13:48:10;10.80;;;3.38;;
36745;SDS011;22715;52.182;21.206;2023-03-25T13:50:38;9.43;;;3.80;;
36745;SDS011;22715;52.182;21.206;2023-03-25T13:53:04;3.85;;;2.88;;
36745;SDS011;22715;52.182;21.206;2023-03-25T13:55:35;3.80;;;3.50;;
36745;SDS011;22715;52.182;21.206;2023-03-25T13:58:13;5.40;;;3.63;;
36745;SDS011;22715;52.182;21.206;2023-03-25T14:01:06;7.80;;;6.40;;
36745;SDS011;22715;52.182;21.206;2023-03-25T14:11:40;8.20;;;5.22;;
36745;SDS011;22715;52.182;21.206;2023-03-25T14:14:11;6.43;;;4.22;;
36745;SDS011;22715;52.182;21.206;2023-03-25T14:16:40;5.13;;;4.63;;
36745;SDS011;22715;52.182;21.206;2023-03-25T14:19:15;7.28;;;4.97;;
36745;SDS011;22715;52.182;21.206;2023-03-25T14:21:48;12.43;;;6.07;;
36745;SDS011;22715;52.182;21.206;2023-03-25T14:24:18;7.75;;;5.40;;
36745;SDS011;22715;52.182;21.206;2023-03-25T14:26:48;6.03;;;4.32;;
36745;SDS011;22715;52.182;21.206;2023-03-25T14:29:19;6.93;;;4.90;;
36745;SDS011;22715;52.182;21.206;2023-03-25T14:31:59;6.15;;;5.50;;
36745;SDS011;22715;52.182;21.206;2023-03-25T14:34:25;6.32;;;4.75;;
36745;SDS011;22715;52.182;21.206;2023-03-25T14:41:55;6.88;;;5.43;;
36745;SDS011;22715;52.182;21.206;2023-03-25T14:44:20;7.00;;;5.43;;
36745;SDS011;22715;52.182;21.206;2023-03-25T14:46:45;7.75;;;4.55;;
36745;SDS011;22715;52.182;21.206;2023-03-25T14:49:18;8.80;;;5.28;;
36745;SDS011;22715;52.182;21.206;2023-03-25T14:51:45;9.25;;;4.95;;
36745;SDS011;22715;52.182;21.206;2023-03-25T14:59:26;5.88;;;5.28;;
36745;SDS011;22715;52.182;21.206;2023-03-25T15:01:59;7.28;;;5.65;;
36745;SDS011;22715;52.182;21.206;2023-03-25T15:04:35;6.38;;;5.57;;
36745;SDS011;22715;52.182;21.206;2023-03-25T15:07:02;8.80;;;5.20;;
36745;SDS011;22715;52.182;21.206;2023-03-25T15:09:28;7.43;;;5.82;;
36745;SDS011;22715;52.182;21.206;2023-03-25T15:12:04;7.32;;;5.28;;
36745;SDS011;22715;52.182;21.206;2023-03-25T15:14:32;8.73;;;5.05;;
36745;SDS011;22715;52.182;21.206;2023-03-25T15:22:20;3.47;;;1.65;;
36745;SDS011;22715;52.182;21.206;2023-03-25T15:24:51;4.43;;;1.77;;
36745;SDS011;22715;52.182;21.206;2023-03-25T15:42:58;3.22;;;1.30;;
36745;SDS011;22715;52.182;21.206;2023-03-25T15:48:46;0.50;;;0.40;;
36745;SDS011;22715;52.182;21.206;2023-03-25T15:56:29;0.57;;;0.50;;
36745;SDS011;22715;52.182;21.206;2023-03-25T15:59:14;2.23;;;1.17;;
36745;SDS011;22715;52.182;21.206;2023-03-25T16:01:59;1.30;;;1.20;;
36745;SDS011;22715;52.182;21.206;2023-03-25T16:04:45;1.02;;;0.80;;
36745;SDS011;22715;52.182;21.206;2023-03-25T16:07:12;3.35;;;1.00;;
36745;SDS011;22715;52.182;21.206;2023-03-25T16:09:39;1.67;;;0.50;;
36745;SDS011;22715;52.182;21.206;2023-03-25T16:12:17;0.57;;;0.55;;
36745;SDS011;22715;52.182;21.206;2023-03-25T16:14:43;1.80;;;0.68;;
36745;SDS011;22715;52.182;21.206;2023-03-25T16:17:19;2.17;;;1.10;;
36745;SDS011;22715;52.182;21.206;2023-03-25T16:19:48;1.83;;;1.20;;
36745;SDS011;22715;52.182;21.206;2023-03-25T16:27:20;2.05;;;0.93;;
36745;SDS011;22715;52.182;21.206;2023-03-25T16:29:48;1.17;;;0.60;;
36745;SDS011;22715;52.182;21.206;2023-03-25T16:32:18;4.00;;;1.02;;
36745;SDS011;22715;52.182;21.206;2023-03-25T16:34:44;2.17;;;1.00;;
36745;SDS011;22715;52.182;21.206;2023-03-25T16:37:10;2.30;;;1.75;;
36745;SDS011;22715;52.182;21.206;2023-03-25T16:39:36;1.55;;;1.13;;
36745;SDS011;22715;52.182;21.206;2023-03-25T16:42:05;2.42;;;1.75;;
36745;SDS011;22715;52.182;21.206;2023-03-25T16:47:10;1.98;;;1.35;;
36745;SDS011;22715;52.182;21.206;2023-03-25T16:49:36;3.05;;;1.40;;
36745;SDS011;22715;52.182;21.206;2023-03-25T16:52:12;2.72;;;2.05;;
36745;SDS011;22715;52.182;21.206;2023-03-25T16:54:52;2.58;;;1.70;;
36745;SDS011;22715;52.182;21.206;2023-03-25T16:57:41;4.75;;;1.63;;
36745;SDS011;22715;52.182;21.206;2023-03-25T17:00:20;4.70;;;2.50;;
36745;SDS011;22715;52.182;21.206;2023-03-25T17:05:24;5.45;;;2.53;;
36745;SDS011;22715;52.182;21.206;2023-03-25T17:07:57;3.70;;;2.10;;
36745;SDS011;22715;52.182;21.206;2023-03-25T17:10:24;3.17;;;2.15;;
36745;SDS011;22715;52.182;21.206;2023-03-25T17:13:13;5.03;;;2.58;;
36745;SDS011;22715;52.182;21.206;2023-03-25T17:15:35;2.85;;;2.20;;
36745;SDS011;22715;52.182;21.206;2023-03-25T17:18:02;3.97;;;2.20;;
36745;SDS011;22715;52.182;21.206;2023-03-25T17:20:40;3.50;;;1.65;;
36745;SDS011;22715;52.182;21.206;2023-03-25T17:23:07;5.13;;;2.67;;
36745;SDS011;22715;52.182;21.206;2023-03-25T17:30:52;6.45;;;3.90;;
36745;SDS011;22715;52.182;21.206;2023-03-25T17:35:53;3.13;;;2.60;;
36745;SDS011;22715;52.182;21.206;2023-03-25T17:38:23;5.60;;;3.78;;
36745;SDS011;22715;52.182;21.206;2023-03-25T17:41:10;5.55;;;3.67;;
36745;SDS011;22715;52.182;21.206;2023-03-25T17:43:36;3.70;;;2.25;;
36745;SDS011;22715;52.182;21.206;2023-03-25T17:46:04;5.05;;;2.72;;
36745;SDS011;22715;52.182;21.206;2023-03-25T17:48:30;4.65;;;3.00;;
36745;SDS011;22715;52.182;21.206;2023-03-25T17:50:59;4.32;;;3.42;;
36745;SDS011;22715;52.182;21.206;2023-03-25T17:53:27;3.60;;;2.65;;
36745;SDS011;22715;52.182;21.206;2023-03-25T17:55:53;6.28;;;2.78;;
36745;SDS011;22715;52.182;21.206;2023-03-25T17:58:19;5.28;;;3.55;;
36745;SDS011;22715;52.182;21.206;2023-03-25T18:00:45;5.07;;;4.10;;
36745;SDS011;22715;52.182;21.206;2023-03-25T18:05:41;5.78;;;4.32;;
36745;SDS011;22715;52.182;21.206;2023-03-25T18:08:12;16.73;;;4.22;;
36745;SDS011;22715;52.182;21.206;2023-03-25T18:10:44;5.72;;;4.35;;
36745;SDS011;22715;52.182;21.206;2023-03-25T18:13:25;6.03;;;3.55;;
36745;SDS011;22715;52.182;21.206;2023-03-25T18:15:55;6.65;;;3.83;;
36745;SDS011;22715;52.182;21.206;2023-03-25T18:18:22;9.18;;;5.10;;
36745;SDS011;22715;52.182;21.206;2023-03-25T18:20:48;6.28;;;4.18;;
36745;SDS011;22715;52.182;21.206;2023-03-25T18:23:14;5.85;;;4.18;;
36745;SDS011;22715;52.182;21.206;2023-03-25T18:25:40;5.30;;;4.57;;
36745;SDS011;22715;52.182;21.206;2023-03-25T18:28:05;9.70;;;6.78;;
36745;SDS011;22715;52.182;21.206;2023-03-25T18:30:39;12.10;;;8.95;;
36745;SDS011;22715;52.182;21.206;2023-03-25T18:33:06;9.25;;;6.57;;
36745;SDS011;22715;52.182;21.206;2023-03-25T18:35:31;9.30;;;4.75;;
36745;SDS011;22715;52.182;21.206;2023-03-25T18:37:56;7.55;;;5.78;;
36745;SDS011;22715;52.182;21.206;2023-03-25T18:40:24;8.68;;;5.35;;
36745;SDS011;22715;52.182;21.206;2023-03-25T18:42:51;6.30;;;4.80;;
36745;SDS011;22715;52.182;21.206;2023-03-25T18:45:21;6.25;;;4.45;;
36745;SDS011;22715;52.182;21.206;2023-03-25T18:47:47;8.30;;;5.85;;
36745;SDS011;22715;52.182;21.206;2023-03-25T18:52:38;7.25;;;5.28;;